CheckWX is a tool to help pilots better visualize weather data.  It is not intended as a substitute for an official pre-flight weather briefing.

04:35:32 UTC

KSUE METAR
Door County Cherryland Airport
Sturgeon Bay, Wisconsin, USA
Current

40 mins ago

KSUE 240356Z AUTO 00000KT 10SM CLR 15/13 A3013 RMK AO2 SLP201 T01500133
Observed
Jul-24 @ 03:56 UTC
Visibility
10 SM
Flight Rules
VFR
Cloud Levels
  • Clear skies
Temperature
15°C / 59°F
Dewpoint
13°C / 55°F
Humidity
88%
Altimeter
30.13" Hg
Pressure
1020.32 hPa
Previous

2 hours ago

KSUE 240256Z AUTO 00000KT 10SM CLR 16/14 A3012 RMK AO2 SLP199 T01560139 53008
Observed
Jul-24 @ 02:56 UTC
Visibility
10 SM
Flight Rules
VFR
Cloud Levels
  • Clear skies
Temperature
16°C / 61°F
Dewpoint
14°C / 57°F
Humidity
88%
Altimeter
30.12" Hg
Pressure
1020.02 hPa
Previous

3 hours ago

KSUE 240156Z AUTO 00000KT 10SM CLR 17/13 A3011 RMK AO2 SLP192 T01720133
Observed
Jul-24 @ 01:56 UTC
Visibility
10 SM
Flight Rules
VFR
Cloud Levels
  • Clear skies
Temperature
17°C / 63°F
Dewpoint
13°C / 55°F
Humidity
77%
Altimeter
30.11" Hg
Pressure
1019.62 hPa